Time;durP1;ratioP1;P1;durP2;ratioP2;P2;SDS_P1;SDS_P2;PMS_P1;PMS_P2;Temp;Humidity;BMP_temperature;BMP_pressure;BME280_temperature;BME280_humidity;BME280_pressure;Samples;Min_cycle;Max_cycle;Signal;HPM_P1;HPM_P2
2021/04/13 00:00:34;;;;;;;35.78;17.92;;;;;;;0.74;88.49;101740.63;5016855;28;20431;-74
2021/04/13 00:03:06;;;;;;;24.10;17.65;;;;;;;0.67;88.59;101734.44;5016844;28;20347;-73
2021/04/13 00:05:44;;;;;;;26.05;17.40;;;;;;;0.66;88.53;101737.94;5012638;28;20349;-74
2021/04/13 00:08:19;;;;;;;26.38;19.17;;;;;;;0.64;88.46;101734.44;5029010;28;20137;-73
2021/04/13 00:10:53;;;;;;;27.27;18.45;;;;;;;0.65;88.89;101736.19;4997929;28;20121;-74
2021/04/13 00:13:22;;;;;;;23.73;18.00;;;;;;;0.56;88.39;101730.91;4998543;28;20060;-70
2021/04/13 00:15:54;;;;;;;23.95;18.23;;;;;;;0.54;88.41;101738.75;4998301;28;20121;-71
2021/04/13 00:18:28;;;;;;;25.58;18.52;;;;;;;0.56;88.51;101733.53;4998192;28;20049;-72
2021/04/13 00:21:13;;;;;;;26.38;19.02;;;;;;;0.50;89.09;101730.88;5030214;28;20415;-72
2021/04/13 00:23:40;;;;;;;28.40;16.75;;;;;;;0.47;89.14;101736.06;5013632;28;20061;-74
2021/04/13 00:26:09;;;;;;;25.08;17.90;;;;;;;0.35;88.87;101722.00;4997268;28;20054;-73
2021/04/13 00:28:43;;;;;;;26.27;18.85;;;;;;;0.50;89.06;101739.59;4997075;28;20380;-71
2021/04/13 00:31:18;;;;;;;23.83;18.17;;;;;;;0.39;88.90;101739.53;4996810;28;20058;-71
2021/04/13 00:33:45;;;;;;;24.15;18.38;;;;;;;0.35;89.03;101732.53;4996917;28;20161;-71
2021/04/13 00:36:16;;;;;;;26.23;18.98;;;;;;;0.34;89.14;101740.38;4996590;28;20420;-75
2021/04/13 00:38:52;;;;;;;25.48;19.10;;;;;;;0.25;88.80;101736.81;4996455;28;20348;-75
2021/04/13 00:41:22;;;;;;;26.48;18.25;;;;;;;0.26;88.85;101742.94;4996530;28;20058;-75
2021/04/13 00:43:53;;;;;;;28.80;20.23;;;;;;;0.36;89.12;101744.78;5011444;28;20065;-76
2021/04/13 00:46:41;;;;;;;26.52;20.02;;;;;;;0.40;89.88;101736.03;4996787;28;20059;-71
2021/04/13 00:49:10;;;;;;;28.38;20.02;;;;;;;0.50;89.67;101750.13;4996325;28;20050;-74
2021/04/13 00:51:42;;;;;;;26.75;20.40;;;;;;;0.63;89.12;101747.56;4996319;28;20058;-74
2021/04/13 00:54:14;;;;;;;26.67;20.45;;;;;;;0.59;88.66;101740.56;4996582;28;20101;-75
2021/04/13 00:56:41;;;;;;;32.00;20.15;;;;;;;0.54;88.91;101741.41;4995958;28;20065;-73
2021/04/13 00:59:13;;;;;;;30.13;20.05;;;;;;;0.52;88.60;101735.25;4995900;28;20050;-71
2021/04/13 01:01:57;;;;;;;31.15;21.38;;;;;;;0.49;88.78;101742.25;5011607;28;20097;-76
2021/04/13 01:04:36;;;;;;;26.38;19.52;;;;;;;0.42;88.75;101738.69;4995862;28;20062;-73
2021/04/13 01:07:17;;;;;;;27.58;19.67;;;;;;;0.35;89.06;101735.16;4996302;28;20054;-72
2021/04/13 01:09:48;;;;;;;;;;;;;;;0.29;89.50;101736.84;4996673;28;20072;-75
2021/04/13 01:12:34;;;;;;;27.35;18.95;;;;;;;0.25;89.58;101733.31;4995970;28;19921;-76
2021/04/13 01:15:01;;;;;;;27.27;18.75;;;;;;;0.26;89.15;101733.31;4996201;28;20050;-71
2021/04/13 01:17:29;;;;;;;29.42;19.25;;;;;;;0.23;89.06;101730.66;4994969;28;20069;-72
2021/04/13 01:20:19;;;;;;;26.58;18.80;;;;;;;0.21;89.27;101734.19;4996035;28;20058;-72
2021/04/13 01:25:21;;;;;;;28.98;21.13;;;;;;;0.29;88.67;101736.84;4995810;28;20050;-71
2021/04/13 01:27:52;;;;;;;31.23;18.70;;;;;;;0.20;89.24;101730.66;4995693;28;20054;-75
2021/04/13 01:30:20;;;;;;;26.13;19.27;;;;;;;0.19;88.96;101730.63;5011166;28;20108;-74
2021/04/13 01:32:48;;;;;;;28.70;20.33;;;;;;;0.13;89.47;101731.47;4995851;28;20057;-74
2021/04/13 01:35:29;;;;;;;23.15;18.48;;;;;;;0.00;89.63;101722.63;4995884;28;20050;-72
2021/04/13 01:38:18;;;;;;;24.38;19.10;;;;;;;0.12;89.01;101729.72;4995475;28;20081;-72
2021/04/13 01:43:24;;;;;;;27.63;19.48;;;;;;;0.08;88.90;101734.06;4995507;28;20079;-76
2021/04/13 01:45:51;;;;;;;28.83;20.20;;;;;;;0.04;89.58;101715.66;4995571;28;20054;-73
2021/04/13 01:48:19;;;;;;;30.23;20.65;;;;;;;0.05;89.63;101736.66;4995474;28;20085;-73
2021/04/13 01:50:56;;;;;;;29.98;19.38;;;;;;;-0.01;88.78;101724.38;4994515;28;20085;-73
2021/04/13 01:53:25;;;;;;;24.13;18.75;;;;;;;-0.02;89.70;101732.22;4995388;28;20065;-75
2021/04/13 01:55:56;;;;;;;33.88;19.30;;;;;;;-0.11;89.43;101722.53;4995577;28;20057;-74
2021/04/13 01:58:38;;;;;;;26.90;18.08;;;;;;;-0.02;89.27;101732.22;4995834;28;20086;-73
2021/04/13 02:01:18;;;;;;;26.52;18.73;;;;;;;-0.09;89.23;101735.66;4995794;28;20093;-75
2021/04/13 02:03:51;;;;;;;26.15;18.70;;;;;;;-0.09;89.52;101730.41;4995500;28;20066;-75
2021/04/13 02:06:37;;;;;;;27.65;18.00;;;;;;;-0.02;89.64;101742.72;5011133;28;20141;-71
2021/04/13 02:09:12;;;;;;;27.85;18.55;;;;;;;-0.02;89.00;101747.97;5015008;28;20471;-74
2021/04/13 02:11:42;;;;;;;30.48;20.23;;;;;;;0.03;89.43;101754.16;5016618;28;20050;-74
2021/04/13 02:14:14;;;;;;;32.13;20.02;;;;;;;0.07;88.92;101749.81;5018671;28;20137;-74
2021/04/13 02:17:06;;;;;;;25.80;18.15;;;;;;;0.17;88.11;101756.00;5018927;28;20057;-72
2021/04/13 02:19:32;;;;;;;27.60;19.13;;;;;;;0.23;87.76;101763.94;5018551;28;20061;-74
2021/04/13 02:22:07;;;;;;;29.77;19.05;;;;;;;0.27;87.80;101755.19;5034110;28;20375;-72
2021/04/13 02:24:36;;;;;;;29.38;20.95;;;;;;;0.13;88.06;101737.59;5018869;28;20111;-72
2021/04/13 02:27:12;;;;;;;25.20;19.42;;;;;;;0.25;87.82;101751.69;5017697;28;20120;-72
2021/04/13 02:29:43;;;;;;;28.42;19.10;;;;;;;0.37;87.23;101762.28;5018573;28;20054;-73
2021/04/13 02:32:26;;;;;;;29.50;20.17;;;;;;;0.35;87.71;101761.41;5017613;28;20141;-73
2021/04/13 02:34:56;;;;;;;24.85;19.25;;;;;;;0.31;87.68;101759.63;5017470;28;20061;-73
2021/04/13 02:37:47;;;;;;;28.25;19.52;;;;;;;0.34;87.46;101761.41;5018542;28;20050;-72
2021/04/13 02:40:31;;;;;;;28.30;19.80;;;;;;;0.30;88.12;101759.59;5033647;28;20054;-75
2021/04/13 02:43:10;;;;;;;29.60;20.30;;;;;;;0.37;87.60;101759.66;5018258;28;20049;-71
2021/04/13 02:45:45;;;;;;;26.65;19.73;;;;;;;0.34;87.90;101756.16;5018121;28;20054;-75
2021/04/13 02:48:17;;;;;;;31.80;19.33;;;;;;;0.17;88.15;101761.25;5018359;28;20144;-73
2021/04/13 02:50:46;;;;;;;33.05;20.38;;;;;;;0.11;88.85;101765.59;5018368;28;20333;-74
2021/04/13 02:53:18;;;;;;;26.08;19.67;;;;;;;-0.01;88.34;101761.13;5018394;28;20046;-75
2021/04/13 02:55:54;;;;;;;27.95;20.92;;;;;;;-0.05;88.79;101753.22;5017205;28;20060;-72
2021/04/13 02:58:23;;;;;;;29.20;19.13;;;;;;;-0.12;88.90;101751.41;5017567;28;20077;-73
2021/04/13 03:00:53;;;;;;;26.63;18.98;;;;;;;0.00;88.69;101767.25;5017895;28;20049;-72
2021/04/13 03:03:26;;;;;;;26.98;18.70;;;;;;;-0.03;88.82;101768.13;5018337;28;20050;-72
2021/04/13 03:05:56;;;;;;;27.40;19.15;;;;;;;-0.15;89.17;101754.88;5017581;28;20112;-72
2021/04/13 03:08:23;;;;;;;29.60;19.33;;;;;;;-0.05;88.45;101771.59;5019339;28;20050;-73
2021/04/13 03:10:55;;;;;;;29.70;19.50;;;;;;;-0.03;88.78;101767.22;5018820;28;20490;-73
2021/04/13 03:13:33;;;;;;;;;;;;;;;-0.14;89.31;101767.13;5018586;28;20165;-72
2021/04/13 03:16:01;;;;;;;24.85;18.00;;;;;;;-0.13;88.93;101763.63;5017738;28;19926;-74
2021/04/13 03:18:33;;;;;;;28.27;18.38;;;;;;;-0.18;89.07;101771.47;5017822;28;20053;-74
2021/04/13 03:21:06;;;;;;;27.58;18.77;;;;;;;-0.21;89.05;101762.69;5017490;28;20057;-73
2021/04/13 03:23:34;;;;;;;26.00;18.70;;;;;;;-0.20;88.84;101770.59;5016053;28;20060;-73
2021/04/13 03:26:08;;;;;;;27.70;18.77;;;;;;;-0.24;89.03;101771.41;5017446;28;20046;-75
2021/04/13 03:28:39;;;;;;;29.40;18.65;;;;;;;-0.26;89.22;101770.53;5017687;28;20169;-75
2021/04/13 03:31:06;;;;;;;28.90;19.13;;;;;;;-0.34;89.61;101766.91;5016244;28;20045;-71
2021/04/13 03:33:35;;;;;;;30.75;18.30;;;;;;;-0.29;89.25;101778.34;5017559;28;20096;-72
2021/04/13 03:36:04;;;;;;;27.83;18.15;;;;;;;-0.28;89.05;101774.84;5017585;28;20049;-74
2021/04/13 03:38:31;;;;;;;25.70;17.48;;;;;;;-0.28;89.13;101777.47;5017228;28;20050;-74
2021/04/13 03:40:57;;;;;;;26.65;17.00;;;;;;;-0.35;88.31;101765.16;5017150;28;20050;-72
2021/04/13 03:43:27;;;;;;;26.15;17.65;;;;;;;-0.31;89.17;101778.34;5017240;28;20497;-73
2021/04/13 03:45:56;;;;;;;24.63;17.92;;;;;;;-0.35;88.58;101767.78;5017205;28;20061;-72
2021/04/13 03:48:26;;;;;;;26.95;17.48;;;;;;;-0.47;89.02;101766.81;5017109;28;20049;-71
2021/04/13 03:51:20;;;;;;;33.60;18.60;;;;;;;-0.43;89.40;101779.06;5017558;28;20053;-72
2021/04/13 03:53:47;;;;;;;24.85;16.48;;;;;;;-0.49;89.72;101779.00;5017183;28;20049;-72
2021/04/13 03:56:17;;;;;;;26.77;16.33;;;;;;;-0.57;89.23;101775.41;5017121;28;20058;-73
2021/04/13 03:58:46;;;;;;;27.73;17.27;;;;;;;-0.55;89.12;101777.19;5017594;28;20124;-72
2021/04/13 04:01:17;;;;;;;26.98;16.58;;;;;;;-0.50;89.27;101782.50;5016373;28;20165;-72
2021/04/13 04:03:52;;;;;;;25.63;16.70;;;;;;;-0.53;88.70;101771.97;5016807;28;20120;-74
2021/04/13 04:06:40;;;;;;;28.35;17.80;;;;;;;-0.61;89.08;101785.00;5016508;28;20072;-74
2021/04/13 04:09:35;;;;;;;28.95;16.95;;;;;;;-0.56;89.77;101774.56;5016592;28;20462;-72
2021/04/13 04:12:23;;;;;;;26.50;16.70;;;;;;;-0.58;89.55;101777.19;5014268;28;20058;-72
2021/04/13 04:15:10;;;;;;;23.80;16.92;;;;;;;-0.52;89.22;101770.22;5016682;28;20351;-74
2021/04/13 04:17:45;;;;;;;26.10;17.63;;;;;;;-0.42;88.94;101786.06;5017083;28;20127;-72
2021/04/13 04:20:14;;;;;;;26.92;17.65;;;;;;;-0.37;88.21;101780.91;5017277;28;20069;-70
2021/04/13 04:22:57;;;;;;;29.80;17.48;;;;;;;-0.40;88.02;101787.88;5016660;28;20446;-75
2021/04/13 04:25:29;;;;;;;25.33;17.45;;;;;;;-0.36;88.44;101789.63;5016657;28;20057;-72
2021/04/13 04:27:59;;;;;;;28.98;18.25;;;;;;;-0.46;89.49;101783.41;5016797;28;20061;-72
2021/04/13 04:30:33;;;;;;;28.35;18.35;;;;;;;-0.47;88.29;101789.53;5016644;28;20080;-76
2021/04/13 04:33:01;;;;;;;27.63;18.35;;;;;;;-0.56;88.76;101787.66;5014895;28;20133;-71
2021/04/13 04:35:43;;;;;;;28.80;17.77;;;;;;;-0.55;88.99;101787.69;5015876;28;20053;-73
2021/04/13 04:38:26;;;;;;;27.63;18.17;;;;;;;-0.55;88.53;101792.03;5031955;28;20347;-71
2021/04/13 04:40:54;;;;;;;33.38;18.65;;;;;;;-0.50;88.81;101800.84;5016326;28;20072;-72
2021/04/13 04:43:43;;;;;;;35.38;20.33;;;;;;;-0.52;88.22;101789.47;5016099;28;20072;-72
2021/04/13 04:46:09;;;;;;;31.80;19.52;;;;;;;-0.50;88.22;101787.75;5016164;28;20088;-74
2021/04/13 04:48:37;;;;;;;28.73;18.20;;;;;;;-0.38;87.75;101804.50;5016328;28;20057;-74
2021/04/13 04:51:10;;;;;;;30.88;18.90;;;;;;;-0.39;88.42;101802.72;5013863;28;20099;-75
2021/04/13 04:53:37;;;;;;;26.52;17.77;;;;;;;-0.46;88.40;101805.28;5015128;28;20081;-74
2021/04/13 04:56:10;;;;;;;25.70;17.42;;;;;;;-0.51;88.94;101806.06;5015739;28;20432;-73
2021/04/13 04:58:37;;;;;;;;;;;;;;;-0.53;88.69;101808.72;5016250;28;20053;-72
2021/04/13 05:01:04;;;;;;;30.58;18.35;;;;;;;-0.56;88.93;101819.16;5016032;28;19928;-72
2021/04/13 05:03:36;;;;;;;28.77;18.42;;;;;;;-0.65;89.07;101814.66;5015987;28;20058;-72
2021/04/13 05:06:02;;;;;;;31.73;19.58;;;;;;;-0.59;89.10;101819.13;5030778;28;20343;-72
2021/04/13 05:08:28;;;;;;;28.15;18.83;;;;;;;-0.61;89.06;101821.72;5014813;28;20046;-72
2021/04/13 05:10:55;;;;;;;30.25;18.70;;;;;;;-0.59;89.06;101825.22;5015923;28;20050;-73
2021/04/13 05:13:21;;;;;;;31.65;19.10;;;;;;;-0.59;89.17;101830.47;4998415;28;20057;-73
2021/04/13 05:15:48;;;;;;;29.92;19.27;;;;;;;-0.60;89.63;101833.97;5015888;28;20054;-74
2021/04/13 05:18:15;;;;;;;32.00;19.48;;;;;;;-0.53;89.47;101834.03;5015871;28;20096;-72
2021/04/13 05:20:41;;;;;;;33.03;19.90;;;;;;;-0.57;89.07;101838.38;5015708;28;20057;-71
2021/04/13 05:23:08;;;;;;;32.85;19.35;;;;;;;-0.54;88.64;101846.28;5015574;28;20054;-70
2021/04/13 05:25:34;;;;;;;27.83;17.95;;;;;;;-0.49;88.83;101844.59;5014771;28;20076;-71
2021/04/13 05:28:00;;;;;;;32.75;19.80;;;;;;;-0.43;88.98;101846.41;5015416;28;20088;-70
2021/04/13 05:30:27;;;;;;;25.35;18.05;;;;;;;-0.39;89.00;101849.97;5015567;28;20108;-74
2021/04/13 05:32:54;;;;;;;30.92;18.10;;;;;;;-0.41;89.15;101844.69;5030623;28;20065;-73
2021/04/13 05:35:22;;;;;;;27.52;17.95;;;;;;;-0.33;88.37;101853.53;5015354;28;20056;-71
2021/04/13 05:37:48;;;;;;;28.08;18.52;;;;;;;-0.43;88.41;101842.03;5015672;28;20049;-73
2021/04/13 05:40:24;;;;;;;27.63;18.85;;;;;;;-0.27;88.79;101865.84;5015472;28;20427;-74
2021/04/13 05:42:54;;;;;;;29.17;18.30;;;;;;;-0.27;89.28;101868.47;5014570;28;20436;-72
2021/04/13 05:45:21;;;;;;;30.00;17.80;;;;;;;-0.22;88.29;101858.03;5015669;28;20057;-72
2021/04/13 05:47:48;;;;;;;31.42;18.48;;;;;;;-0.15;88.32;101854.59;5013058;28;20133;-72
2021/04/13 05:50:37;;;;;;;27.52;17.65;;;;;;;0.00;87.55;101877.53;5002663;28;20053;-72
2021/04/13 05:53:04;;;;;;;34.35;17.15;;;;;;;0.10;87.46;101876.75;5019888;28;20065;-71
2021/04/13 05:55:31;;;;;;;28.33;17.08;;;;;;;0.15;87.21;101882.03;5035534;28;20045;-70
2021/04/13 05:58:01;;;;;;;29.17;18.33;;;;;;;0.16;87.78;101881.16;5021171;28;20058;-73
2021/04/13 06:00:28;;;;;;;24.50;16.73;;;;;;;0.26;87.09;101879.50;5021785;28;20096;-71
2021/04/13 06:02:56;;;;;;;27.65;16.92;;;;;;;0.34;86.45;101883.13;5020795;28;20340;-73
2021/04/13 06:05:25;;;;;;;24.80;16.35;;;;;;;0.40;86.22;101882.28;5034887;28;20108;-72
2021/04/13 06:07:51;;;;;;;25.23;16.58;;;;;;;0.42;86.32;101888.41;5021288;28;20053;-71
2021/04/13 06:10:18;;;;;;;26.33;17.50;;;;;;;0.44;86.82;101888.44;5019153;28;20050;-73
2021/04/13 06:12:50;;;;;;;25.48;15.77;;;;;;;0.56;86.04;101887.66;5019823;28;20053;-71
2021/04/13 06:15:18;;;;;;;28.42;16.75;;;;;;;0.50;85.75;101883.25;5021100;28;20107;-70
2021/04/13 06:17:45;;;;;;;27.45;16.52;;;;;;;0.60;85.41;101897.34;5020298;28;20057;-72
2021/04/13 06:20:12;;;;;;;25.30;15.82;;;;;;;0.52;86.08;101877.13;5018498;28;20081;-74
2021/04/13 06:22:38;;;;;;;24.27;15.27;;;;;;;0.72;85.75;101905.34;5019360;28;20058;-72
2021/04/13 06:25:05;;;;;;;25.35;16.10;;;;;;;0.87;83.97;101912.44;5018787;28;20332;-74
2021/04/13 06:27:31;;;;;;;31.23;15.20;;;;;;;0.90;83.54;101907.22;5018411;28;20057;-73
2021/04/13 06:29:57;;;;;;;29.55;15.23;;;;;;;1.00;83.51;101909.91;5018751;28;20053;-73
2021/04/13 06:32:25;;;;;;;27.60;16.42;;;;;;;1.02;83.59;101910.78;5018688;28;20054;-73
2021/04/13 06:34:53;;;;;;;25.27;15.13;;;;;;;1.05;83.01;101913.44;5018857;28;20050;-73
2021/04/13 06:37:20;;;;;;;24.80;15.88;;;;;;;1.05;82.89;101905.56;5017405;28;20050;-72
2021/04/13 06:39:47;;;;;;;25.70;15.10;;;;;;;1.12;82.79;101907.38;5018361;28;20054;-74
2021/04/13 06:42:53;;;;;;;21.10;15.27;;;;;;;1.21;83.15;101919.69;5018438;28;20046;-74
2021/04/13 06:45:32;;;;;;;21.67;14.38;;;;;;;1.26;83.20;101917.09;5017299;28;20056;-71
2021/04/13 06:48:09;;;;;;;23.38;14.65;;;;;;;1.36;82.27;101924.16;5018377;28;20061;-73
2021/04/13 06:50:51;;;;;;;21.10;13.93;;;;;;;1.34;82.72;101925.91;5017614;28;20350;-74
2021/04/13 06:53:33;;;;;;;25.20;15.13;;;;;;;1.39;83.15;101924.19;5017014;28;20053;-71
2021/04/13 06:56:30;;;;;;;25.30;14.70;;;;;;;1.46;82.60;101925.97;5017276;28;20050;-76
2021/04/13 06:59:18;;;;;;;24.17;14.25;;;;;;;1.48;82.70;101926.84;5016690;28;20049;-74
2021/04/13 07:01:50;;;;;;;20.17;13.55;;;;;;;1.51;82.06;101925.13;5018324;28;20046;-70
2021/04/13 07:04:32;;;;;;;26.40;13.05;;;;;;;1.44;81.05;101913.69;5017200;28;20060;-70
2021/04/13 07:07:06;;;;;;;24.48;14.38;;;;;;;1.55;81.46;101925.16;4997132;28;20065;-74
2021/04/13 07:09:42;;;;;;;20.65;13.80;;;;;;;1.56;82.14;101932.19;4998623;28;20065;-73
2021/04/13 07:12:29;;;;;;;25.95;15.25;;;;;;;1.65;81.90;101933.09;4998292;28;20453;-72
2021/04/13 07:15:22;;;;;;;23.45;13.98;;;;;;;1.69;81.35;101934.88;4998449;28;20058;-73
2021/04/13 07:17:57;;;;;;;21.30;13.75;;;;;;;1.73;80.97;101934.88;4998184;28;20130;-71
2021/04/13 07:20:36;;;;;;;23.58;13.68;;;;;;;1.81;81.09;101942.84;4998642;28;20042;-71
2021/04/13 07:23:08;;;;;;;21.45;13.45;;;;;;;1.84;81.12;101934.03;4998318;28;20068;-74
2021/04/13 07:25:46;;;;;;;20.63;13.27;;;;;;;1.92;81.92;101940.25;4998587;28;20050;-73
2021/04/13 07:28:27;;;;;;;30.48;13.93;;;;;;;1.88;81.06;101923.56;5013668;28;20062;-74
2021/04/13 07:30:59;;;;;;;19.50;12.80;;;;;;;1.97;81.09;101927.94;4997862;28;20137;-74
2021/04/13 07:33:30;;;;;;;21.92;13.25;;;;;;;2.05;82.02;101938.50;4998532;28;20054;-71
2021/04/13 07:36:21;;;;;;;30.83;13.73;;;;;;;2.17;81.79;101933.28;4999668;28;20145;-74
2021/04/13 07:38:49;;;;;;;20.88;12.60;;;;;;;2.21;81.26;101926.28;4997763;28;20054;-74
2021/04/13 07:41:23;;;;;;;21.80;12.48;;;;;;;2.24;80.79;101934.16;4997963;28;20058;-72
2021/04/13 07:44:04;;;;;;;29.75;11.98;;;;;;;2.25;81.17;101922.78;4997801;28;20058;-73
2021/04/13 07:46:48;;;;;;;19.65;12.40;;;;;;;2.42;80.90;101935.09;4996689;28;20137;-74
2021/04/13 07:49:43;;;;;;;23.55;12.45;;;;;;;2.50;80.26;101943.03;4997634;28;20058;-74
2021/04/13 07:52:36;;;;;;;21.20;12.75;;;;;;;2.54;79.99;101939.50;4997515;28;20100;-70
2021/04/13 07:55:30;;;;;;;15.95;10.05;;;;;;;2.60;79.84;101943.91;4997398;28;20062;-73
2021/04/13 07:58:03;;;;;;;14.70;6.68;;;;;;;2.68;77.65;101932.47;4998862;28;20058;-71
2021/04/13 08:00:33;;;;;;;17.00;8.85;;;;;;;2.75;78.08;101929.84;4997488;28;20124;-71
2021/04/13 08:03:22;;;;;;;22.55;8.55;;;;;;;2.90;79.16;101937.78;5027944;28;20054;-73
2021/04/13 08:05:51;;;;;;;15.43;8.60;;;;;;;3.03;77.50;101936.00;4997224;28;20058;-72
2021/04/13 08:08:28;;;;;;;17.67;9.45;;;;;;;3.04;77.48;101934.25;4997186;28;20051;-74
2021/04/13 08:11:14;;;;;;;18.90;9.80;;;;;;;3.15;77.02;101942.16;4997276;28;20137;-71
2021/04/13 08:14:17;;;;;;;25.38;10.40;;;;;;;3.22;77.38;101939.47;4997128;28;20171;-72
2021/04/13 08:16:47;;;;;;;21.30;10.02;;;;;;;3.16;76.69;101928.06;5012082;28;20061;-73
2021/04/13 08:19:23;;;;;;;18.00;9.48;;;;;;;3.22;76.55;101939.47;4995941;28;20046;-73
2021/04/13 08:22:13;;;;;;;15.82;9.40;;;;;;;3.32;77.29;101944.75;5012179;28;20050;-73
2021/04/13 08:24:41;;;;;;;17.90;9.20;;;;;;;3.37;75.36;101933.31;4997076;28;20050;-73
2021/04/13 08:27:14;;;;;;;20.13;8.75;;;;;;;3.40;75.17;101935.91;4996155;28;20109;-74
2021/04/13 08:29:44;;;;;;;20.88;8.48;;;;;;;3.49;76.08;101942.09;4996744;28;20050;-74
2021/04/13 08:32:51;;;;;;;12.65;7.85;;;;;;;3.62;74.06;101942.91;5012173;28;20061;-73
2021/04/13 08:35:27;;;;;;;19.50;8.18;;;;;;;3.49;74.06;101894.56;4997052;28;20050;-72
2021/04/13 08:38:21;;;;;;;22.40;10.27;;;;;;;3.94;75.59;101924.28;4996636;28;20341;-72
2021/04/13 08:41:19;;;;;;;21.20;8.98;;;;;;;4.19;73.42;101926.81;5010426;28;20054;-74
2021/04/13 08:43:48;;;;;;;16.63;8.02;;;;;;;4.38;72.88;101945.22;4997124;28;20078;-72
2021/04/13 08:46:20;;;;;;;16.63;8.27;;;;;;;4.54;71.71;101934.53;5011830;28;20109;-71
2021/04/13 08:48:55;;;;;;;21.25;9.10;;;;;;;4.53;71.57;101928.34;4996557;28;20458;-73
2021/04/13 08:51:39;;;;;;;16.63;7.28;;;;;;;4.62;71.50;101938.88;4996356;28;20078;-72
2021/04/13 08:54:20;;;;;;;14.07;7.25;;;;;;;4.70;70.53;101940.59;4996372;28;20162;-71
2021/04/13 08:57:19;;;;;;;11.63;3.10;;;;;;;4.67;67.84;101945.88;4996476;28;20333;-73
2021/04/13 08:59:52;;;;;;;12.30;4.45;;;;;;;4.76;66.94;101946.69;4988328;28;20052;-73
2021/04/13 09:02:26;;;;;;;27.35;7.90;;;;;;;4.93;67.36;101948.34;5011578;28;20452;-72
2021/04/13 09:05:13;;;;;;;16.83;4.65;;;;;;;5.06;66.92;101948.22;5015913;28;20084;-74
2021/04/13 09:07:46;;;;;;;14.20;3.40;;;;;;;5.12;67.29;101943.75;5015823;28;20432;-71
2021/04/13 09:10:35;;;;;;;11.77;2.67;;;;;;;5.10;67.54;101940.25;5015977;28;20050;-71
2021/04/13 09:13:23;;;;;;;8.82;2.80;;;;;;;5.17;66.81;101943.69;5012125;28;20053;-72
2021/04/13 09:16:11;;;;;;;9.40;2.10;;;;;;;5.28;65.62;101941.81;5015651;28;20347;-73
2021/04/13 09:18:50;;;;;;;8.40;2.22;;;;;;;5.40;64.62;101932.00;5015831;28;20077;-72
2021/04/13 09:21:25;;;;;;;11.15;2.38;;;;;;;5.64;64.10;101948.50;5015156;28;20064;-74
2021/04/13 09:24:35;;;;;;;14.70;2.58;;;;;;;5.53;64.08;101949.53;5015599;28;20061;-73
2021/04/13 09:27:33;;;;;;;6.28;1.75;;;;;;;5.28;62.43;101946.22;5015269;28;20348;-72
2021/04/13 09:30:18;;;;;;;8.95;1.88;;;;;;;5.24;61.51;101952.47;5014768;28;20057;-73
2021/04/13 09:32:47;;;;;;;8.82;1.50;;;;;;;5.25;61.05;101943.63;5015361;28;20050;-74
2021/04/13 09:35:31;;;;;;;6.72;1.88;;;;;;;5.67;60.76;101951.13;5015576;28;20054;-72
2021/04/13 09:38:29;;;;;;;7.78;1.92;;;;;;;5.92;58.83;101949.06;5015563;28;20104;-73
2021/04/13 09:41:14;;;;;;;9.10;2.05;;;;;;;6.20;59.67;101947.84;5005332;28;20061;-72
2021/04/13 09:44:01;;;;;;;9.98;2.05;;;;;;;6.58;58.52;101940.25;5015275;28;20046;-72
2021/04/13 09:46:49;;;;;;;9.70;2.05;;;;;;;6.63;56.97;101944.56;5015557;28;20062;-72
2021/04/13 09:49:33;;;;;;;8.13;2.47;;;;;;;6.10;57.45;101932.06;5015269;28;20432;-72
2021/04/13 09:52:09;;;;;;;8.23;2.00;;;;;;;5.92;60.04;101946.41;5015218;28;20424;-73
2021/04/13 09:54:40;;;;;;;9.05;3.05;;;;;;;5.76;62.40;101935.13;5015382;28;20100;-72
2021/04/13 09:57:16;;;;;;;14.60;2.10;;;;;;;5.66;62.13;101933.50;5015271;28;20080;-71
2021/04/13 09:59:48;;;;;;;8.95;2.38;;;;;;;5.66;62.58;101941.44;5015376;28;20056;-73
2021/04/13 10:03:02;;;;;;;11.55;2.85;;;;;;;5.59;61.63;101935.31;5015140;28;20142;-73
2021/04/13 10:05:36;;;;;;;7.57;2.35;;;;;;;5.54;61.50;101935.38;5015015;28;20060;-74
2021/04/13 10:08:21;;;;;;;12.65;2.35;;;;;;;5.74;62.37;101931.63;5015405;28;20076;-74
2021/04/13 10:10:57;;;;;;;7.07;2.10;;;;;;;6.10;60.05;101933.84;5015263;28;20042;-72
2021/04/13 10:13:23;;;;;;;7.90;1.90;;;;;;;6.01;58.59;101923.31;5014946;28;20049;-74
2021/04/13 10:16:14;;;;;;;10.07;1.73;;;;;;;6.04;57.65;101926.00;5014909;28;20061;-70
2021/04/13 10:19:12;;;;;;;7.50;1.50;;;;;;;6.17;55.30;101922.28;5014867;28;20061;-72
2021/04/13 10:21:47;;;;;;;10.30;1.50;;;;;;;6.68;57.37;101914.41;5013838;28;20054;-72
2021/04/13 10:24:49;;;;;;;5.90;1.73;;;;;;;7.21;56.26;101909.09;5015309;28;20120;-72
2021/04/13 10:27:24;;;;;;;8.25;1.58;;;;;;;7.55;53.65;101902.22;5014966;28;20087;-71
2021/04/13 10:30:07;;;;;;;7.22;1.90;;;;;;;7.48;55.59;101896.16;5015040;28;20056;-72
2021/04/13 10:33:01;;;;;;;8.85;1.73;;;;;;;7.12;53.18;101904.81;5015214;28;20050;-72
2021/04/13 10:36:12;;;;;;;6.70;1.38;;;;;;;6.88;53.85;101899.06;5018468;28;20050;-71
2021/04/13 10:39:16;;;;;;;3.28;1.20;;;;;;;6.86;51.81;101897.31;5017414;28;20053;-73
2021/04/13 10:42:31;;;;;;;5.30;1.33;;;;;;;7.04;52.07;101896.97;5018304;28;20403;-71
2021/04/13 10:45:16;;;;;;;4.32;1.50;;;;;;;7.34;52.00;101894.66;5017374;28;20044;-73
2021/04/13 10:48:04;;;;;;;11.07;1.60;;;;;;;7.87;53.74;101892.72;5018189;28;20056;-71
2021/04/13 10:50:46;;;;;;;9.20;1.58;;;;;;;8.42;51.24;101884.38;5017116;28;20435;-74
2021/04/13 10:53:27;;;;;;;5.10;1.20;;;;;;;8.90;49.38;101880.53;5017301;28;20057;-73
2021/04/13 10:56:02;;;;;;;6.65;1.92;;;;;;;9.23;46.14;101874.34;5019160;28;20133;-73
2021/04/13 10:58:56;;;;;;;7.70;1.48;;;;;;;9.38;47.80;101871.22;5019184;28;20066;-72
2021/04/13 11:01:54;;;;;;;7.65;1.50;;;;;;;9.53;47.75;101873.50;5020681;28;20046;-73
2021/04/13 11:04:59;;;;;;;8.38;1.63;;;;;;;8.79;48.82;101870.19;5021534;28;20049;-72
2021/04/13 11:07:43;;;;;;;6.57;1.60;;;;;;;8.41;50.25;101874.63;4997580;28;20440;-74
2021/04/13 11:10:31;;;;;;;6.07;1.33;;;;;;;7.74;49.04;101877.00;4998713;28;20121;-73
2021/04/13 11:13:01;;;;;;;9.35;1.73;;;;;;;7.44;48.32;101873.22;4998454;28;20356;-71
2021/04/13 11:15:53;;;;;;;4.50;1.30;;;;;;;7.34;49.51;101869.88;4998385;28;20086;-73
2021/04/13 11:18:45;;;;;;;10.57;2.00;;;;;;;7.70;51.28;101878.00;4998005;28;20050;-71
2021/04/13 11:21:20;;;;;;;9.20;1.92;;;;;;;8.00;52.24;101866.72;4997981;28;20062;-73
2021/04/13 11:24:31;;;;;;;10.00;2.17;;;;;;;8.29;49.11;101871.34;4997888;28;20058;-71
2021/04/13 11:27:19;;;;;;;5.82;1.15;;;;;;;8.67;50.12;101860.69;4997913;28;20428;-74
2021/04/13 11:29:51;;;;;;;9.65;1.70;;;;;;;8.97;47.45;101857.28;4998029;28;20059;-71
2021/04/13 11:32:55;;;;;;;5.93;1.45;;;;;;;9.24;44.28;101855.66;4996677;28;20054;-72
2021/04/13 11:35:29;;;;;;;5.40;1.50;;;;;;;9.30;44.46;101856.38;4998204;28;20120;-74
2021/04/13 11:38:04;;;;;;;6.03;1.25;;;;;;;9.60;44.89;101849.28;4997731;28;20057;-71
2021/04/13 11:41:23;;;;;;;10.25;1.40;;;;;;;9.87;45.31;101845.84;4997766;28;20076;-72
2021/04/13 11:44:08;;;;;;;8.95;2.10;;;;;;;10.02;45.18;101841.84;4997173;28;20367;-74
2021/04/13 11:46:46;;;;;;;6.80;1.45;;;;;;;9.84;43.83;101846.81;4997736;28;20058;-75
2021/04/13 11:49:25;;;;;;;3.00;1.10;;;;;;;9.85;42.02;101853.00;4996712;28;20054;-74
2021/04/13 11:52:10;;;;;;;4.45;1.00;;;;;;;9.83;40.19;101849.50;4997870;28;20379;-71
2021/04/13 11:54:47;;;;;;;3.60;0.90;;;;;;;9.49;39.33;101851.41;5012649;28;20069;-74
2021/04/13 11:57:24;;;;;;;6.35;1.63;;;;;;;9.57;40.01;101846.72;4997413;28;20053;-72
2021/04/13 12:00:20;;;;;;;5.68;1.13;;;;;;;10.14;41.01;101835.22;4996426;28;20046;-72
2021/04/13 12:03:00;;;;;;;4.90;1.40;;;;;;;9.86;41.66;101834.28;5009045;28;20050;-73
2021/04/13 12:05:54;;;;;;;5.03;0.93;;;;;;;9.95;39.64;101830.47;5005178;28;20058;-72
2021/04/13 12:08:30;;;;;;;5.40;1.20;;;;;;;10.16;39.11;101826.25;5016833;28;20058;-71
2021/04/13 12:11:36;;;;;;;3.65;1.35;;;;;;;10.37;39.92;101818.47;5016747;28;20423;-74